AAL450 KPHX-KSAT
Flight info
| Callsign | AAL450 |
|---|---|
| Flight time | 1h 46m |
| Altitude | 29000 |
| Route | ECLPS1 PHASE ELP FST J138 SHUCK MOPPP DNKIN2 |
| Aircraft | A320/M-SDE3FGHIRWY/LB1 |
Departure
| Time | 2026-05-07 13:58 |
|---|---|
| Airport | Phoenix Sky Harbor International Airport (KPHX) |
Arrival
| Time | 2026-05-07 15:44 |
|---|---|
| Airport | San Antonio International Airport (KSAT) |
| Time | Latitude | Longitude | Altitude | Speed | Heading |
|---|---|---|---|---|---|
| 2026-05-07 13:04 | 33.43794 | -111.99879 | 1117 ft | 0 kts | 270° |
| 2026-05-07 13:40 | 33.43794 | -111.99876 | 1124 ft | 4 kts | 271° |
| 2026-05-07 13:40 | 33.43794 | -111.99848 | 1116 ft | 3 kts | 248° |
| 2026-05-07 13:41 | 33.43798 | -111.99830 | 1118 ft | 4 kts | 332° |
| 2026-05-07 13:41 | 33.43775 | -111.99826 | 1115 ft | 2 kts | 0° |
| 2026-05-07 13:41 | 33.43773 | -111.99826 | 1116 ft | 0 kts | 0° |
| 2026-05-07 13:46 | 33.43785 | -111.99826 | 1117 ft | 6 kts | 359° |
| 2026-05-07 13:46 | 33.43847 | -111.99827 | 1119 ft | 9 kts | 360° |
| 2026-05-07 13:46 | 33.43895 | -111.99839 | 1123 ft | 6 kts | 322° |
| 2026-05-07 13:47 | 33.43905 | -111.99887 | 1122 ft | 7 kts | 269° |
| 2026-05-07 13:47 | 33.43904 | -111.99955 | 1125 ft | 9 kts | 270° |
| 2026-05-07 13:47 | 33.43904 | -112.00038 | 1125 ft | 11 kts | 271° |
| 2026-05-07 13:47 | 33.43906 | -112.00134 | 1125 ft | 12 kts | 271° |
| 2026-05-07 13:48 | 33.43908 | -112.00240 | 1121 ft | 9 kts | 271° |
| 2026-05-07 13:48 | 33.43905 | -112.00321 | 1125 ft | 9 kts | 266° |
| 2026-05-07 13:48 | 33.43870 | -112.00380 | 1117 ft | 10 kts | 189° |
| 2026-05-07 13:48 | 33.43795 | -112.00380 | 1122 ft | 12 kts | 180° |
| 2026-05-07 13:49 | 33.43705 | -112.00381 | 1120 ft | 14 kts | 180° |
| 2026-05-07 13:49 | 33.43608 | -112.00381 | 1124 ft | 15 kts | 180° |
| 2026-05-07 13:49 | 33.43503 | -112.00381 | 1114 ft | 16 kts | 180° |
| 2026-05-07 13:49 | 33.43390 | -112.00381 | 1121 ft | 17 kts | 180° |
| 2026-05-07 13:50 | 33.43300 | -112.00386 | 1122 ft | 10 kts | 200° |
| 2026-05-07 13:50 | 33.43287 | -112.00454 | 1125 ft | 8 kts | 279° |
| 2026-05-07 13:50 | 33.43290 | -112.00513 | 1125 ft | 6 kts | 269° |
| 2026-05-07 13:50 | 33.43288 | -112.00561 | 1121 ft | 5 kts | 268° |
| 2026-05-07 13:51 | 33.43288 | -112.00609 | 1122 ft | 6 kts | 270° |
| 2026-05-07 13:51 | 33.43288 | -112.00667 | 1118 ft | 7 kts | 270° |
| 2026-05-07 13:51 | 33.43282 | -112.00730 | 1123 ft | 7 kts | 245° |
| 2026-05-07 13:51 | 33.43233 | -112.00762 | 1124 ft | 9 kts | 208° |
| 2026-05-07 13:52 | 33.43215 | -112.00823 | 1119 ft | 9 kts | 268° |
| 2026-05-07 13:52 | 33.43214 | -112.00918 | 1119 ft | 13 kts | 269° |
| 2026-05-07 13:52 | 33.43214 | -112.01018 | 1122 ft | 11 kts | 270° |
| 2026-05-07 13:52 | 33.43215 | -112.01102 | 1126 ft | 10 kts | 270° |
| 2026-05-07 13:53 | 33.43216 | -112.01203 | 1118 ft | 14 kts | 269° |
| 2026-05-07 13:53 | 33.43215 | -112.01331 | 1122 ft | 16 kts | 270° |
| 2026-05-07 13:53 | 33.43215 | -112.01458 | 1125 ft | 15 kts | 270° |
| 2026-05-07 13:53 | 33.43215 | -112.01577 | 1118 ft | 13 kts | 270° |
| 2026-05-07 13:54 | 33.43215 | -112.01677 | 1122 ft | 11 kts | 270° |
| 2026-05-07 13:54 | 33.43215 | -112.01764 | 1122 ft | 11 kts | 270° |
| 2026-05-07 13:54 | 33.43215 | -112.01869 | 1120 ft | 12 kts | 270° |
| 2026-05-07 13:54 | 33.43215 | -112.01964 | 1125 ft | 11 kts | 269° |
| 2026-05-07 13:55 | 33.43215 | -112.02072 | 1118 ft | 15 kts | 270° |
| 2026-05-07 13:55 | 33.43215 | -112.02217 | 1120 ft | 20 kts | 270° |
| 2026-05-07 13:55 | 33.43215 | -112.02386 | 1120 ft | 21 kts | 270° |
| 2026-05-07 13:55 | 33.43216 | -112.02542 | 1118 ft | 16 kts | 269° |
| 2026-05-07 13:56 | 33.43214 | -112.02663 | 1118 ft | 10 kts | 261° |
| 2026-05-07 13:56 | 33.43168 | -112.02699 | 1122 ft | 7 kts | 180° |
| 2026-05-07 13:56 | 33.43121 | -112.02697 | 1122 ft | 6 kts | 175° |
| 2026-05-07 13:56 | 33.43106 | -112.02665 | 1120 ft | 4 kts | 93° |
| 2026-05-07 13:57 | 33.43105 | -112.02532 | 1126 ft | 47 kts | 90° |
| 2026-05-07 13:57 | 33.43105 | -112.01859 | 1127 ft | 112 kts | 90° |
| 2026-05-07 13:57 | 33.43105 | -112.00700 | 1131 ft | 164 kts | 90° |
| 2026-05-07 13:57 | 33.43098 | -111.99245 | 1569 ft | 173 kts | 89° |
| 2026-05-07 13:58 | 33.43128 | -111.97802 | 2263 ft | 173 kts | 84° |
| 2026-05-07 13:58 | 33.43205 | -111.96371 | 2876 ft | 174 kts | 84° |
| 2026-05-07 13:58 | 33.43292 | -111.94848 | 3153 ft | 195 kts | 84° |
| 2026-05-07 13:58 | 33.43383 | -111.93122 | 3374 ft | 219 kts | 85° |
| 2026-05-07 13:59 | 33.43474 | -111.91200 | 3687 ft | 244 kts | 85° |
| 2026-05-07 13:59 | 33.43563 | -111.89111 | 4262 ft | 256 kts | 87° |
| 2026-05-07 13:59 | 33.43270 | -111.87001 | 5049 ft | 265 kts | 114° |
| 2026-05-07 13:59 | 33.42175 | -111.85199 | 5835 ft | 272 kts | 131° |
| 2026-05-07 14:00 | 33.40766 | -111.83641 | 6602 ft | 279 kts | 138° |
| 2026-05-07 14:00 | 33.39262 | -111.82155 | 7366 ft | 282 kts | 139° |
| 2026-05-07 14:00 | 33.37745 | -111.80640 | 8168 ft | 285 kts | 137° |
| 2026-05-07 14:00 | 33.36248 | -111.79071 | 8982 ft | 288 kts | 136° |
| 2026-05-07 14:01 | 33.34762 | -111.77439 | 9769 ft | 291 kts | 135° |
| 2026-05-07 14:01 | 33.33279 | -111.75753 | 10387 ft | 300 kts | 134° |
| 2026-05-07 14:01 | 33.31726 | -111.73945 | 10594 ft | 324 kts | 134° |
| 2026-05-07 14:01 | 33.30065 | -111.71986 | 10835 ft | 344 kts | 133° |
| 2026-05-07 14:02 | 33.28349 | -111.69957 | 11436 ft | 350 kts | 134° |
| 2026-05-07 14:02 | 33.26608 | -111.67909 | 12152 ft | 353 kts | 134° |
| 2026-05-07 14:02 | 33.24849 | -111.65847 | 12859 ft | 356 kts | 134° |
| 2026-05-07 14:02 | 33.23079 | -111.63772 | 13554 ft | 359 kts | 134° |
| 2026-05-07 14:03 | 33.21312 | -111.61701 | 14184 ft | 362 kts | 134° |
| 2026-05-07 14:03 | 33.19510 | -111.59592 | 14785 ft | 364 kts | 134° |
| 2026-05-07 14:03 | 33.17694 | -111.57468 | 15389 ft | 367 kts | 134° |
| 2026-05-07 14:03 | 33.15866 | -111.55330 | 15932 ft | 369 kts | 134° |
| 2026-05-07 14:04 | 33.14023 | -111.53174 | 16536 ft | 372 kts | 134° |
| 2026-05-07 14:04 | 33.12170 | -111.51006 | 17141 ft | 375 kts | 133° |
| 2026-05-07 14:04 | 33.10302 | -111.48822 | 17721 ft | 377 kts | 133° |
| 2026-05-07 14:04 | 33.08421 | -111.46627 | 18318 ft | 380 kts | 133° |
| 2026-05-07 14:05 | 33.06655 | -111.44281 | 18843 ft | 381 kts | 124° |
| 2026-05-07 14:05 | 33.05182 | -111.41654 | 19362 ft | 382 kts | 121° |
| 2026-05-07 14:05 | 33.03730 | -111.38985 | 19876 ft | 385 kts | 121° |
| 2026-05-07 14:05 | 33.02265 | -111.36298 | 20388 ft | 388 kts | 121° |
| 2026-05-07 14:06 | 33.00787 | -111.33596 | 20890 ft | 391 kts | 121° |
| 2026-05-07 14:06 | 32.99296 | -111.30873 | 21383 ft | 394 kts | 121° |
| 2026-05-07 14:06 | 32.97793 | -111.28136 | 21856 ft | 396 kts | 121° |
| 2026-05-07 14:06 | 32.96276 | -111.25379 | 22349 ft | 399 kts | 121° |
| 2026-05-07 14:07 | 32.94749 | -111.22607 | 22802 ft | 402 kts | 121° |
| 2026-05-07 14:07 | 32.93212 | -111.19820 | 23248 ft | 404 kts | 120° |
| 2026-05-07 14:07 | 32.91663 | -111.17012 | 23651 ft | 407 kts | 120° |
| 2026-05-07 14:07 | 32.90105 | -111.14185 | 24005 ft | 409 kts | 120° |
| 2026-05-07 14:08 | 32.88543 | -111.11346 | 24377 ft | 412 kts | 121° |
| 2026-05-07 14:08 | 32.86973 | -111.08492 | 24732 ft | 414 kts | 122° |
| 2026-05-07 14:08 | 32.85391 | -111.05625 | 25069 ft | 416 kts | 122° |
| 2026-05-07 14:08 | 32.83797 | -111.02741 | 25400 ft | 418 kts | 122° |
| 2026-05-07 14:09 | 32.82195 | -110.99843 | 25732 ft | 420 kts | 122° |
| 2026-05-07 14:09 | 32.80586 | -110.96933 | 26048 ft | 423 kts | 122° |
| 2026-05-07 14:09 | 32.78966 | -110.94006 | 26361 ft | 425 kts | 122° |
| 2026-05-07 14:09 | 32.77334 | -110.91065 | 26674 ft | 427 kts | 122° |
| 2026-05-07 14:10 | 32.75692 | -110.88113 | 26986 ft | 430 kts | 122° |
| 2026-05-07 14:10 | 32.74040 | -110.85142 | 27293 ft | 432 kts | 122° |
| 2026-05-07 14:10 | 32.72380 | -110.82160 | 27586 ft | 434 kts | 122° |
| 2026-05-07 14:10 | 32.71278 | -110.80178 | 27749 ft | 436 kts | 122° |
| 2026-05-07 14:11 | 32.69602 | -110.77161 | 27988 ft | 439 kts | 124° |
| 2026-05-07 14:11 | 32.67908 | -110.74118 | 28201 ft | 443 kts | 124° |
| 2026-05-07 14:11 | 32.66204 | -110.71059 | 28448 ft | 446 kts | 124° |
| 2026-05-07 14:11 | 32.64703 | -110.67832 | 28709 ft | 449 kts | 115° |
| 2026-05-07 14:12 | 32.63646 | -110.64339 | 28925 ft | 452 kts | 106° |
| 2026-05-07 14:12 | 32.62079 | -110.57204 | 28982 ft | 442 kts | 106° |
| 2026-05-07 14:13 | 32.60537 | -110.50159 | 28977 ft | 441 kts | 106° |
| 2026-05-07 14:13 | 32.58981 | -110.43110 | 28988 ft | 444 kts | 107° |
| 2026-05-07 14:14 | 32.57400 | -110.36017 | 28983 ft | 445 kts | 107° |
| 2026-05-07 14:14 | 32.55812 | -110.28916 | 28990 ft | 446 kts | 107° |
| 2026-05-07 14:15 | 32.54225 | -110.21817 | 28990 ft | 446 kts | 107° |
| 2026-05-07 14:15 | 32.52641 | -110.14712 | 28979 ft | 447 kts | 108° |
| 2026-05-07 14:16 | 32.51050 | -110.07629 | 28955 ft | 449 kts | 109° |
| 2026-05-07 14:16 | 32.49432 | -110.00465 | 28964 ft | 451 kts | 109° |
| 2026-05-07 14:17 | 32.47812 | -109.93281 | 28966 ft | 452 kts | 109° |
| 2026-05-07 14:17 | 32.46180 | -109.86085 | 28971 ft | 453 kts | 109° |
| 2026-05-07 14:18 | 32.44538 | -109.78883 | 28946 ft | 453 kts | 109° |
| 2026-05-07 14:18 | 32.43258 | -109.71543 | 28955 ft | 458 kts | 102° |
| 2026-05-07 14:19 | 32.42325 | -109.64075 | 28954 ft | 460 kts | 102° |
| 2026-05-07 14:19 | 32.41385 | -109.56585 | 28959 ft | 460 kts | 102° |
| 2026-05-07 14:20 | 32.40428 | -109.49095 | 28967 ft | 461 kts | 103° |
| 2026-05-07 14:20 | 32.39463 | -109.41584 | 28939 ft | 463 kts | 103° |
| 2026-05-07 14:21 | 32.38490 | -109.34036 | 28948 ft | 465 kts | 103° |
| 2026-05-07 14:21 | 32.37515 | -109.26455 | 28951 ft | 467 kts | 103° |
| 2026-05-07 14:22 | 32.36527 | -109.18862 | 28962 ft | 468 kts | 104° |
| 2026-05-07 14:22 | 32.35438 | -109.11287 | 28931 ft | 467 kts | 106° |
| 2026-05-07 14:23 | 32.34081 | -109.03780 | 28946 ft | 467 kts | 108° |
| 2026-05-07 14:23 | 32.32666 | -108.96331 | 28951 ft | 468 kts | 108° |
| 2026-05-07 14:24 | 32.31295 | -108.88794 | 28961 ft | 469 kts | 107° |
| 2026-05-07 14:24 | 32.29951 | -108.81244 | 28964 ft | 470 kts | 107° |
| 2026-05-07 14:25 | 32.28597 | -108.73694 | 29143 ft | 470 kts | 108° |
| 2026-05-07 14:25 | 32.27228 | -108.66122 | 29157 ft | 472 kts | 108° |
| 2026-05-07 14:26 | 32.25843 | -108.58537 | 29132 ft | 472 kts | 109° |
| 2026-05-07 14:26 | 32.24457 | -108.50950 | 29092 ft | 473 kts | 109° |
| 2026-05-07 14:27 | 32.23064 | -108.43356 | 29050 ft | 473 kts | 109° |
| 2026-05-07 14:27 | 32.21673 | -108.35758 | 28979 ft | 474 kts | 109° |
| 2026-05-07 14:28 | 32.20273 | -108.28154 | 28940 ft | 475 kts | 109° |
| 2026-05-07 14:28 | 32.18860 | -108.20538 | 28946 ft | 475 kts | 109° |
| 2026-05-07 14:29 | 32.17440 | -108.12919 | 28956 ft | 476 kts | 109° |
| 2026-05-07 14:29 | 32.16025 | -108.05290 | 28959 ft | 476 kts | 109° |
| 2026-05-07 14:30 | 32.14601 | -107.97661 | 28952 ft | 476 kts | 109° |
| 2026-05-07 14:30 | 32.13171 | -107.90040 | 28956 ft | 476 kts | 109° |
| 2026-05-07 14:31 | 32.11728 | -107.82414 | 28954 ft | 476 kts | 109° |
| 2026-05-07 14:31 | 32.11005 | -107.78606 | 29106 ft | 476 kts | 109° |
| 2026-05-07 14:31 | 32.10282 | -107.74797 | 29106 ft | 476 kts | 109° |
| 2026-05-07 14:32 | 32.08836 | -107.67170 | 29074 ft | 477 kts | 109° |
| 2026-05-07 14:32 | 32.07387 | -107.59532 | 29049 ft | 478 kts | 109° |
| 2026-05-07 14:33 | 32.05925 | -107.51895 | 29010 ft | 478 kts | 109° |
| 2026-05-07 14:33 | 32.04454 | -107.44257 | 28973 ft | 478 kts | 109° |
| 2026-05-07 14:34 | 32.02990 | -107.36619 | 28929 ft | 478 kts | 109° |
| 2026-05-07 14:34 | 32.01528 | -107.29025 | 28935 ft | 479 kts | 110° |
| 2026-05-07 14:35 | 32.00044 | -107.21365 | 28937 ft | 479 kts | 110° |
| 2026-05-07 14:35 | 31.98552 | -107.13709 | 28950 ft | 479 kts | 110° |
| 2026-05-07 14:36 | 31.97060 | -107.06055 | 28953 ft | 479 kts | 110° |
| 2026-05-07 14:36 | 31.95565 | -106.98402 | 28952 ft | 480 kts | 110° |
| 2026-05-07 14:37 | 31.94061 | -106.90731 | 28956 ft | 481 kts | 110° |
| 2026-05-07 14:37 | 31.92548 | -106.83049 | 29130 ft | 482 kts | 110° |
| 2026-05-07 14:37 | 31.91787 | -106.79202 | 29154 ft | 483 kts | 110° |
| 2026-05-07 14:38 | 31.90264 | -106.71513 | 29157 ft | 483 kts | 110° |
| 2026-05-07 14:38 | 31.88738 | -106.63815 | 29144 ft | 483 kts | 110° |
| 2026-05-07 14:39 | 31.87204 | -106.56103 | 29135 ft | 484 kts | 110° |
| 2026-05-07 14:39 | 31.85653 | -106.48392 | 29150 ft | 485 kts | 110° |
| 2026-05-07 14:40 | 31.84101 | -106.40671 | 29156 ft | 485 kts | 110° |
| 2026-05-07 14:40 | 31.82560 | -106.33001 | 29126 ft | 486 kts | 110° |
| 2026-05-07 14:41 | 31.80945 | -106.25229 | 29124 ft | 486 kts | 112° |
| 2026-05-07 14:41 | 31.79098 | -106.17665 | 29095 ft | 484 kts | 114° |
| 2026-05-07 14:42 | 31.77142 | -106.10110 | 29049 ft | 483 kts | 114° |
| 2026-05-07 14:42 | 31.75223 | -106.02541 | 29018 ft | 484 kts | 114° |
| 2026-05-07 14:43 | 31.73349 | -105.94948 | 28967 ft | 484 kts | 113° |
| 2026-05-07 14:43 | 31.71469 | -105.87354 | 28981 ft | 484 kts | 113° |
| 2026-05-07 14:44 | 31.69574 | -105.79763 | 28989 ft | 485 kts | 114° |
| 2026-05-07 14:44 | 31.67662 | -105.72175 | 29007 ft | 484 kts | 114° |
| 2026-05-07 14:45 | 31.65750 | -105.64592 | 29002 ft | 484 kts | 114° |
| 2026-05-07 14:45 | 31.63837 | -105.57009 | 28976 ft | 485 kts | 114° |
| 2026-05-07 14:46 | 31.61926 | -105.49424 | 29011 ft | 485 kts | 114° |
| 2026-05-07 14:46 | 31.60003 | -105.41827 | 29017 ft | 486 kts | 114° |
| 2026-05-07 14:47 | 31.58069 | -105.34225 | 29031 ft | 486 kts | 114° |
| 2026-05-07 14:47 | 31.56127 | -105.26633 | 29015 ft | 486 kts | 114° |
| 2026-05-07 14:48 | 31.54181 | -105.19032 | 29025 ft | 487 kts | 114° |
| 2026-05-07 14:48 | 31.52245 | -105.11481 | 29028 ft | 487 kts | 114° |
| 2026-05-07 14:49 | 31.50291 | -105.03877 | 29039 ft | 487 kts | 114° |
| 2026-05-07 14:49 | 31.48329 | -104.96270 | 29040 ft | 488 kts | 114° |
| 2026-05-07 14:50 | 31.46365 | -104.88669 | 29030 ft | 488 kts | 115° |
| 2026-05-07 14:50 | 31.44383 | -104.81056 | 29046 ft | 489 kts | 115° |
| 2026-05-07 14:51 | 31.42401 | -104.73424 | 29052 ft | 490 kts | 115° |
| 2026-05-07 14:51 | 31.40421 | -104.65797 | 29053 ft | 490 kts | 115° |
| 2026-05-07 14:52 | 31.38434 | -104.58174 | 29066 ft | 490 kts | 115° |
| 2026-05-07 14:52 | 31.36444 | -104.50565 | 29064 ft | 489 kts | 115° |
| 2026-05-07 14:53 | 31.34444 | -104.42957 | 29070 ft | 489 kts | 115° |
| 2026-05-07 14:53 | 31.32435 | -104.35358 | 29078 ft | 489 kts | 115° |
| 2026-05-07 14:54 | 31.30424 | -104.27763 | 29073 ft | 489 kts | 115° |
| 2026-05-07 14:54 | 31.28418 | -104.20172 | 29064 ft | 489 kts | 115° |
| 2026-05-07 14:55 | 31.26403 | -104.12577 | 29092 ft | 490 kts | 115° |
| 2026-05-07 14:55 | 31.24371 | -104.04969 | 29089 ft | 490 kts | 115° |
| 2026-05-07 14:56 | 31.22341 | -103.97375 | 29090 ft | 489 kts | 115° |
| 2026-05-07 14:56 | 31.20312 | -103.89794 | 29075 ft | 489 kts | 115° |
| 2026-05-07 14:57 | 31.18284 | -103.82215 | 29085 ft | 489 kts | 115° |
| 2026-05-07 14:57 | 31.16251 | -103.74646 | 29096 ft | 489 kts | 115° |
| 2026-05-07 14:58 | 31.14225 | -103.67128 | 29107 ft | 489 kts | 115° |
| 2026-05-07 14:58 | 31.12162 | -103.59515 | 29107 ft | 489 kts | 115° |
| 2026-05-07 14:59 | 31.10118 | -103.52006 | 29102 ft | 489 kts | 115° |
| 2026-05-07 14:59 | 31.08060 | -103.44448 | 29086 ft | 488 kts | 115° |
| 2026-05-07 15:00 | 31.06008 | -103.36887 | 29078 ft | 489 kts | 115° |
| 2026-05-07 15:00 | 31.03952 | -103.29330 | 29070 ft | 488 kts | 115° |
| 2026-05-07 15:01 | 31.02234 | -103.23063 | 29067 ft | 488 kts | 116° |
| 2026-05-07 15:01 | 31.00164 | -103.15536 | 29064 ft | 488 kts | 116° |
| 2026-05-07 15:02 | 30.98093 | -103.08010 | 29054 ft | 487 kts | 116° |
| 2026-05-07 15:02 | 30.96019 | -103.00506 | 29057 ft | 486 kts | 116° |
| 2026-05-07 15:03 | 30.93974 | -102.92995 | 29061 ft | 487 kts | 115° |
| 2026-05-07 15:03 | 30.92995 | -102.89210 | 29193 ft | 488 kts | 114° |
| 2026-05-07 15:03 | 30.92033 | -102.85418 | 29193 ft | 488 kts | 114° |
| 2026-05-07 15:04 | 30.90122 | -102.77836 | 29178 ft | 488 kts | 114° |
| 2026-05-07 15:04 | 30.88186 | -102.70270 | 29116 ft | 487 kts | 115° |
| 2026-05-07 15:05 | 30.86223 | -102.62729 | 29095 ft | 486 kts | 115° |
| 2026-05-07 15:05 | 30.84253 | -102.55200 | 29072 ft | 486 kts | 115° |
| 2026-05-07 15:06 | 30.82287 | -102.47679 | 29060 ft | 486 kts | 115° |
| 2026-05-07 15:06 | 30.80324 | -102.40149 | 29045 ft | 486 kts | 115° |
| 2026-05-07 15:07 | 30.78352 | -102.32628 | 29055 ft | 486 kts | 115° |
| 2026-05-07 15:07 | 30.76372 | -102.25099 | 29059 ft | 487 kts | 115° |
| 2026-05-07 15:08 | 30.74390 | -102.17565 | 29056 ft | 487 kts | 115° |
| 2026-05-07 15:08 | 30.72397 | -102.10031 | 29059 ft | 487 kts | 115° |
| 2026-05-07 15:09 | 30.70398 | -102.02513 | 29052 ft | 487 kts | 115° |
| 2026-05-07 15:09 | 30.68406 | -101.94994 | 29034 ft | 486 kts | 114° |
| 2026-05-07 15:10 | 30.66411 | -101.87495 | 29054 ft | 486 kts | 114° |
| 2026-05-07 15:10 | 30.64410 | -101.80007 | 29060 ft | 485 kts | 114° |
| 2026-05-07 15:11 | 30.62402 | -101.72528 | 29054 ft | 485 kts | 115° |
| 2026-05-07 15:11 | 30.60395 | -101.65056 | 29061 ft | 485 kts | 114° |
| 2026-05-07 15:12 | 30.58392 | -101.57584 | 29063 ft | 485 kts | 114° |
| 2026-05-07 15:12 | 30.56386 | -101.50124 | 29055 ft | 484 kts | 114° |
| 2026-05-07 15:13 | 30.54373 | -101.42676 | 29060 ft | 484 kts | 114° |
| 2026-05-07 15:13 | 30.52348 | -101.35230 | 29061 ft | 484 kts | 115° |
| 2026-05-07 15:14 | 30.50328 | -101.27791 | 29063 ft | 484 kts | 114° |
| 2026-05-07 15:14 | 30.48403 | -101.20296 | 29097 ft | 486 kts | 113° |
| 2026-05-07 15:15 | 30.46547 | -101.12744 | 29085 ft | 488 kts | 112° |
| 2026-05-07 15:15 | 30.44661 | -101.05190 | 29075 ft | 488 kts | 113° |
| 2026-05-07 15:16 | 30.42738 | -100.97656 | 29079 ft | 488 kts | 113° |
| 2026-05-07 15:16 | 30.40807 | -100.90122 | 29097 ft | 488 kts | 113° |
| 2026-05-07 15:17 | 30.38877 | -100.82592 | 29111 ft | 488 kts | 113° |
| 2026-05-07 15:17 | 30.36947 | -100.75063 | 29119 ft | 488 kts | 113° |
| 2026-05-07 15:18 | 30.35020 | -100.67532 | 29116 ft | 487 kts | 113° |
| 2026-05-07 15:18 | 30.33093 | -100.60016 | 29108 ft | 487 kts | 113° |
| 2026-05-07 15:19 | 30.31143 | -100.52501 | 29079 ft | 488 kts | 113° |
| 2026-05-07 15:19 | 30.29192 | -100.45018 | 29054 ft | 489 kts | 113° |
| 2026-05-07 15:20 | 30.27220 | -100.37469 | 29058 ft | 491 kts | 113° |
| 2026-05-07 15:20 | 30.25256 | -100.29907 | 29070 ft | 491 kts | 113° |
| 2026-05-07 15:21 | 30.23290 | -100.22336 | 29071 ft | 492 kts | 113° |
| 2026-05-07 15:21 | 30.21306 | -100.14771 | 29061 ft | 492 kts | 113° |
| 2026-05-07 15:22 | 30.19317 | -100.07199 | 29065 ft | 493 kts | 113° |
| 2026-05-07 15:22 | 30.17289 | -99.99559 | 29080 ft | 499 kts | 114° |
| 2026-05-07 15:23 | 30.15000 | -99.91995 | 29084 ft | 502 kts | 117° |
| 2026-05-07 15:23 | 30.12505 | -99.84455 | 29079 ft | 503 kts | 117° |
| 2026-05-07 15:24 | 30.10013 | -99.76886 | 29083 ft | 506 kts | 117° |
| 2026-05-07 15:24 | 30.07572 | -99.69255 | 29084 ft | 507 kts | 116° |
| 2026-05-07 15:25 | 30.05156 | -99.61614 | 29085 ft | 507 kts | 116° |
| 2026-05-07 15:25 | 30.02728 | -99.53984 | 29072 ft | 506 kts | 116° |
| 2026-05-07 15:26 | 30.00289 | -99.46378 | 29087 ft | 505 kts | 116° |
| 2026-05-07 15:26 | 29.97843 | -99.38786 | 28756 ft | 503 kts | 116° |
| 2026-05-07 15:27 | 29.96614 | -99.34984 | 27637 ft | 505 kts | 116° |
| 2026-05-07 15:27 | 29.95400 | -99.31228 | 26464 ft | 496 kts | 116° |
| 2026-05-07 15:27 | 29.94208 | -99.27531 | 25395 ft | 488 kts | 116° |
| 2026-05-07 15:27 | 29.93035 | -99.23901 | 24381 ft | 479 kts | 115° |
| 2026-05-07 15:28 | 29.91873 | -99.20331 | 23343 ft | 471 kts | 116° |
| 2026-05-07 15:28 | 29.90675 | -99.16864 | 22243 ft | 462 kts | 117° |
| 2026-05-07 15:28 | 29.89438 | -99.13480 | 21204 ft | 454 kts | 118° |
| 2026-05-07 15:28 | 29.88194 | -99.10177 | 20215 ft | 446 kts | 118° |
| 2026-05-07 15:29 | 29.86977 | -99.06968 | 19276 ft | 439 kts | 118° |
| 2026-05-07 15:29 | 29.85752 | -99.03721 | 18332 ft | 433 kts | 117° |
| 2026-05-07 15:29 | 29.84587 | -99.00603 | 17343 ft | 426 kts | 117° |
| 2026-05-07 15:29 | 29.83325 | -98.97570 | 16416 ft | 414 kts | 126° |
| 2026-05-07 15:30 | 29.81629 | -98.94965 | 15507 ft | 400 kts | 136° |
| 2026-05-07 15:30 | 29.79802 | -98.92597 | 14720 ft | 391 kts | 136° |
| 2026-05-07 15:30 | 29.78063 | -98.90332 | 14553 ft | 365 kts | 136° |
| 2026-05-07 15:30 | 29.76440 | -98.88210 | 14394 ft | 342 kts | 136° |
| 2026-05-07 15:31 | 29.74896 | -98.86198 | 13961 ft | 331 kts | 137° |
| 2026-05-07 15:31 | 29.73376 | -98.84236 | 13355 ft | 325 kts | 137° |
| 2026-05-07 15:31 | 29.71877 | -98.82308 | 12715 ft | 321 kts | 137° |
| 2026-05-07 15:31 | 29.70396 | -98.80407 | 12111 ft | 317 kts | 137° |
| 2026-05-07 15:32 | 29.68928 | -98.78528 | 11511 ft | 314 kts | 137° |
| 2026-05-07 15:32 | 29.67450 | -98.76706 | 10900 ft | 310 kts | 138° |
| 2026-05-07 15:32 | 29.65999 | -98.74972 | 10680 ft | 292 kts | 139° |
| 2026-05-07 15:32 | 29.64571 | -98.73374 | 10256 ft | 281 kts | 147° |
| 2026-05-07 15:33 | 29.62942 | -98.72234 | 9828 ft | 266 kts | 162° |
| 2026-05-07 15:33 | 29.61271 | -98.71559 | 9659 ft | 246 kts | 165° |
| 2026-05-07 15:33 | 29.59664 | -98.70939 | 9220 ft | 242 kts | 166° |
| 2026-05-07 15:33 | 29.58073 | -98.70314 | 8713 ft | 241 kts | 165° |
| 2026-05-07 15:34 | 29.56478 | -98.69685 | 8106 ft | 245 kts | 166° |
| 2026-05-07 15:34 | 29.54854 | -98.69045 | 7489 ft | 249 kts | 164° |
| 2026-05-07 15:34 | 29.53208 | -98.68398 | 6860 ft | 252 kts | 162° |
| 2026-05-07 15:34 | 29.51542 | -98.67748 | 6223 ft | 254 kts | 162° |
| 2026-05-07 15:35 | 29.49909 | -98.67113 | 5966 ft | 239 kts | 161° |
| 2026-05-07 15:35 | 29.48359 | -98.66510 | 5970 ft | 233 kts | 161° |
| 2026-05-07 15:35 | 29.46785 | -98.66137 | 5969 ft | 231 kts | 180° |
| 2026-05-07 15:35 | 29.45214 | -98.66455 | 5971 ft | 231 kts | 202° |
| 2026-05-07 15:36 | 29.43862 | -98.67425 | 5968 ft | 230 kts | 220° |
| 2026-05-07 15:36 | 29.42658 | -98.68618 | 5702 ft | 229 kts | 220° |
| 2026-05-07 15:36 | 29.41403 | -98.69752 | 5365 ft | 229 kts | 206° |
| 2026-05-07 15:36 | 29.39945 | -98.70245 | 5276 ft | 212 kts | 182° |
| 2026-05-07 15:37 | 29.38554 | -98.69998 | 5139 ft | 197 kts | 158° |
| 2026-05-07 15:37 | 29.37438 | -98.69158 | 4888 ft | 192 kts | 134° |
| 2026-05-07 15:37 | 29.36725 | -98.67881 | 4611 ft | 191 kts | 110° |
| 2026-05-07 15:37 | 29.36511 | -98.66402 | 4318 ft | 189 kts | 87° |
| 2026-05-07 15:38 | 29.36823 | -98.64958 | 4097 ft | 187 kts | 64° |
| 2026-05-07 15:38 | 29.37555 | -98.63715 | 3971 ft | 189 kts | 54° |
| 2026-05-07 15:38 | 29.38342 | -98.62516 | 3852 ft | 187 kts | 53° |
| 2026-05-07 15:38 | 29.39117 | -98.61329 | 3736 ft | 185 kts | 54° |
| 2026-05-07 15:39 | 29.39894 | -98.60138 | 3608 ft | 186 kts | 54° |
| 2026-05-07 15:39 | 29.40665 | -98.58960 | 3489 ft | 183 kts | 54° |
| 2026-05-07 15:39 | 29.41447 | -98.57852 | 3428 ft | 171 kts | 46° |
| 2026-05-07 15:39 | 29.42273 | -98.56943 | 3307 ft | 157 kts | 43° |
| 2026-05-07 15:40 | 29.43054 | -98.56144 | 3148 ft | 143 kts | 43° |
| 2026-05-07 15:40 | 29.43779 | -98.55419 | 2987 ft | 138 kts | 42° |
| 2026-05-07 15:40 | 29.44494 | -98.54710 | 2815 ft | 134 kts | 41° |
| 2026-05-07 15:40 | 29.45193 | -98.54019 | 2646 ft | 131 kts | 41° |
| 2026-05-07 15:41 | 29.45879 | -98.53342 | 2469 ft | 130 kts | 39° |
| 2026-05-07 15:41 | 29.46567 | -98.52664 | 2306 ft | 130 kts | 40° |
| 2026-05-07 15:41 | 29.47251 | -98.51990 | 2121 ft | 129 kts | 41° |
| 2026-05-07 15:41 | 29.47929 | -98.51323 | 1952 ft | 129 kts | 39° |
| 2026-05-07 15:42 | 29.48604 | -98.50651 | 1784 ft | 127 kts | 40° |
| 2026-05-07 15:42 | 29.49266 | -98.49987 | 1583 ft | 128 kts | 39° |
| 2026-05-07 15:42 | 29.49950 | -98.49324 | 1425 ft | 129 kts | 40° |
| 2026-05-07 15:42 | 29.50630 | -98.48651 | 1255 ft | 127 kts | 39° |
| 2026-05-07 15:43 | 29.51330 | -98.47968 | 1085 ft | 133 kts | 41° |
| 2026-05-07 15:43 | 29.52022 | -98.47281 | 918 ft | 131 kts | 44° |
| 2026-05-07 15:43 | 29.52703 | -98.46619 | 799 ft | 118 kts | 42° |
| 2026-05-07 15:43 | 29.53203 | -98.46124 | 798 ft | 70 kts | 40° |
| 2026-05-07 15:44 | 29.53445 | -98.45887 | 798 ft | 27 kts | 41° |
| 2026-05-07 15:44 | 29.53538 | -98.45794 | 798 ft | 26 kts | 40° |
| 2026-05-07 15:44 | 29.53647 | -98.45698 | 798 ft | 13 kts | 29° |
| 2026-05-07 15:44 | 29.53715 | -98.45709 | 798 ft | 10 kts | 317° |
| 2026-05-07 15:45 | 29.53741 | -98.45779 | 798 ft | 10 kts | 255° |
| 2026-05-07 15:45 | 29.53696 | -98.45828 | 798 ft | 8 kts | 218° |
| 2026-05-07 15:45 | 29.53643 | -98.45880 | 798 ft | 7 kts | 221° |
| 2026-05-07 15:45 | 29.53610 | -98.45913 | 798 ft | 7 kts | 221° |
| 2026-05-07 15:46 | 29.53522 | -98.46002 | 798 ft | 13 kts | 220° |
| 2026-05-07 15:46 | 29.53457 | -98.46064 | 798 ft | 12 kts | 220° |
| 2026-05-07 15:46 | 29.53397 | -98.46122 | 798 ft | 11 kts | 220° |
| 2026-05-07 15:47 | 29.53345 | -98.46174 | 798 ft | 9 kts | 220° |
| 2026-05-07 15:47 | 29.53298 | -98.46221 | 798 ft | 10 kts | 221° |
| 2026-05-07 15:47 | 29.53226 | -98.46293 | 798 ft | 17 kts | 221° |
| 2026-05-07 15:47 | 29.53129 | -98.46390 | 798 ft | 18 kts | 220° |
| 2026-05-07 15:48 | 29.53035 | -98.46479 | 797 ft | 16 kts | 221° |
| 2026-05-07 15:48 | 29.52951 | -98.46560 | 797 ft | 15 kts | 220° |
| 2026-05-07 15:48 | 29.52875 | -98.46636 | 797 ft | 14 kts | 221° |
| 2026-05-07 15:48 | 29.52805 | -98.46706 | 797 ft | 13 kts | 221° |
| 2026-05-07 15:49 | 29.52760 | -98.46770 | 797 ft | 9 kts | 259° |
| 2026-05-07 15:49 | 29.52786 | -98.46827 | 797 ft | 8 kts | 312° |
| 2026-05-07 15:49 | 29.52829 | -98.46882 | 797 ft | 11 kts | 311° |
| 2026-05-07 15:49 | 29.52878 | -98.46951 | 797 ft | 10 kts | 296° |
| 2026-05-07 15:50 | 29.52863 | -98.47029 | 797 ft | 10 kts | 253° |
| 2026-05-07 15:50 | 29.52820 | -98.47091 | 797 ft | 10 kts | 221° |
| 2026-05-07 15:50 | 29.52776 | -98.47136 | 797 ft | 6 kts | 221° |
| 2026-05-07 15:50 | 29.52771 | -98.47181 | 797 ft | 6 kts | 279° |
| 2026-05-07 15:51 | 29.52783 | -98.47207 | 797 ft | 3 kts | 311° |
| 2026-05-07 15:51 | 29.52794 | -98.47222 | 797 ft | 0 kts | 312° |